Time;durP1;ratioP1;P1;durP2;ratioP2;P2;SDS_P1;SDS_P2;PMS_P1;PMS_P2;Temp;Humidity;BMP_temperature;BMP_pressure;BME280_temperature;BME280_humidity;BME280_pressure;Samples;Min_cycle;Max_cycle;Signal;HPM_P1;HPM_P2
2022/07/16 00:03:47;;;;;;;8.53;3.47;;;18.00;98.90;;;;;;5009842;28;20199;-84
2022/07/16 00:06:15;;;;;;;6.20;3.60;;;17.90;99.90;;;;;;5003927;28;20449;-84
2022/07/16 00:08:41;;;;;;;9.13;3.57;;;17.90;99.90;;;;;;5003745;28;20604;-85
2022/07/16 00:11:06;;;;;;;6.00;3.70;;;17.80;99.90;;;;;;5002463;28;20544;-84
2022/07/16 00:13:32;;;;;;;11.27;4.53;;;17.70;99.90;;;;;;5011398;28;20266;-84
2022/07/16 00:15:57;;;;;;;4.57;4.00;;;17.70;99.90;;;;;;5005101;28;20629;-86
2022/07/16 00:21:07;;;;;;;10.43;4.47;;;17.60;99.90;;;;;;5002184;28;20273;-85
2022/07/16 00:23:32;;;;;;;10.57;4.50;;;17.50;99.90;;;;;;5004036;28;20449;-84
2022/07/16 00:25:58;;;;;;;9.07;4.10;;;17.50;99.90;;;;;;5005077;28;20226;-85
2022/07/16 00:28:23;;;;;;;7.23;3.97;;;17.40;99.90;;;;;;5009981;28;20211;-85
2022/07/16 00:30:49;;;;;;;5.00;4.30;;;17.40;99.90;;;;;;5000486;28;20223;-84
2022/07/16 00:33:14;;;;;;;6.30;4.30;;;17.40;99.90;;;;;;5005979;28;20225;-84
2022/07/16 00:35:40;;;;;;;5.70;4.43;;;17.40;99.90;;;;;;5002563;28;20210;-85
2022/07/16 00:38:07;;;;;;;5.63;3.93;;;17.30;99.90;;;;;;5002007;28;20183;-84
2022/07/16 00:40:33;;;;;;;5.70;4.20;;;17.30;99.90;;;;;;5003665;28;20215;-85
2022/07/16 00:42:59;;;;;;;10.00;4.30;;;17.30;99.90;;;;;;5006531;28;20807;-84
2022/07/16 00:45:25;;;;;;;5.50;3.90;;;17.30;99.90;;;;;;5000423;28;20437;-86
2022/07/16 00:47:50;;;;;;;10.50;4.40;;;17.20;99.90;;;;;;5008098;28;20813;-84
2022/07/16 00:50:16;;;;;;;6.00;4.00;;;17.20;99.90;;;;;;5001132;28;20473;-84
2022/07/16 00:52:42;;;;;;;8.93;4.10;;;17.20;99.90;;;;;;5000305;28;20183;-84
2022/07/16 00:55:08;;;;;;;9.03;3.93;;;17.20;99.90;;;;;;5005498;28;20183;-85
2022/07/16 00:57:33;;;;;;;11.07;4.30;;;17.10;99.90;;;;;;5006703;28;20360;-86
2022/07/16 00:59:59;;;;;;;12.00;4.17;;;17.10;99.90;;;;;;5002911;28;20576;-85
2022/07/16 01:02:25;;;;;;;5.90;4.10;;;17.10;99.90;;;;;;5004428;28;20662;-85
2022/07/16 01:04:50;;;;;;;5.10;3.77;;;17.00;99.90;;;;;;5001497;28;21200;-85
2022/07/16 01:07:17;;;;;;;6.30;4.27;;;17.00;99.90;;;;;;5005562;28;20495;-85
2022/07/16 01:09:43;;;;;;;8.27;4.10;;;17.00;99.90;;;;;;5008872;28;20195;-85
2022/07/16 01:12:10;;;;;;;6.57;4.40;;;17.00;99.90;;;;;;5003751;28;20955;-85
2022/07/16 01:14:35;;;;;;;8.33;4.13;;;16.90;99.90;;;;;;5004143;28;20477;-85
2022/07/16 01:17:01;;;;;;;6.00;4.33;;;16.90;99.90;;;;;;5001065;28;20437;-85
2022/07/16 01:19:27;;;;;;;13.13;5.33;;;16.90;99.90;;;;;;5009712;28;20476;-84
2022/07/16 01:21:52;;;;;;;6.73;3.73;;;16.90;99.90;;;;;;5009587;28;20719;-85
2022/07/16 01:24:18;;;;;;;6.40;3.93;;;16.80;99.90;;;;;;5008453;28;20199;-85
2022/07/16 01:26:43;;;;;;;5.37;3.80;;;16.80;99.90;;;;;;5003738;28;20697;-87
2022/07/16 01:29:09;;;;;;;5.10;3.40;;;16.80;99.90;;;;;;5006576;28;20193;-83
2022/07/16 01:31:34;;;;;;;6.57;3.60;;;16.80;99.90;;;;;;5007474;28;20230;-83
2022/07/16 01:37:04;;;;;;;4.60;3.73;;;16.70;99.90;;;;;;5002510;28;20241;-83
2022/07/16 01:39:32;;;;;;;4.63;4.23;;;16.70;99.90;;;;;;5004844;28;20437;-83
2022/07/16 01:42:01;;;;;;;5.47;4.00;;;16.60;99.90;;;;;;5000586;28;20434;-83
2022/07/16 01:44:29;;;;;;;5.60;3.60;;;16.60;99.90;;;;;;5025085;28;20451;-83
2022/07/16 01:46:56;;;;;;;5.00;4.20;;;16.60;99.90;;;;;;5013027;28;20464;-83
2022/07/16 01:49:22;;;;;;;7.60;4.93;;;16.60;99.90;;;;;;5006668;28;20961;-83
2022/07/16 01:51:47;;;;;;;7.50;4.70;;;16.60;99.90;;;;;;5004269;28;20438;-84
2022/07/16 01:54:13;;;;;;;5.47;3.90;;;16.60;99.90;;;;;;5005304;28;20503;-84
2022/07/16 01:56:39;;;;;;;7.50;4.43;;;16.50;99.90;;;;;;5005569;28;20174;-83
2022/07/16 01:59:04;;;;;;;7.93;4.80;;;16.50;99.90;;;;;;5002994;28;20203;-83
2022/07/16 02:01:30;;;;;;;7.50;4.33;;;16.50;99.90;;;;;;4999497;28;20938;-84
2022/07/16 02:03:56;;;;;;;6.83;4.50;;;16.50;99.90;;;;;;5011117;28;20282;-83
2022/07/16 02:06:21;;;;;;;6.60;5.10;;;16.50;99.90;;;;;;5018987;28;20273;-84
2022/07/16 02:08:47;;;;;;;9.97;4.40;;;16.50;99.90;;;;;;5009462;28;20221;-85
2022/07/16 02:11:12;;;;;;;6.40;4.73;;;16.50;99.90;;;;;;5021481;28;20750;-84
2022/07/16 02:13:38;;;;;;;5.20;4.70;;;16.40;99.90;;;;;;5005471;28;20187;-84
2022/07/16 02:16:04;;;;;;;7.73;4.93;;;16.40;99.90;;;;;;5010220;28;20280;-84
2022/07/16 02:18:29;;;;;;;6.77;5.00;;;16.30;99.90;;;;;;5006721;28;20658;-84
2022/07/16 02:20:55;;;;;;;9.03;4.43;;;16.30;99.90;;;;;;5020076;28;20461;-84
2022/07/16 02:23:21;;;;;;;8.20;4.33;;;16.30;99.90;;;;;;5003863;28;20288;-84
2022/07/16 02:25:46;;;;;;;8.90;4.53;;;16.20;99.90;;;;;;5003149;28;20440;-84
2022/07/16 02:28:12;;;;;;;9.13;4.23;;;16.20;99.90;;;;;;5006602;28;20210;-83
2022/07/16 02:30:43;;;;;;;5.63;3.93;;;16.20;99.90;;;;;;5001429;28;20555;-86
2022/07/16 02:33:10;;;;;;;5.17;3.80;;;16.20;99.90;;;;;;5002940;28;20432;-84
2022/07/16 02:35:37;;;;;;;6.93;4.23;;;16.20;99.90;;;;;;5005947;28;20435;-83
2022/07/16 02:38:03;;;;;;;9.60;4.90;;;16.20;99.90;;;;;;5006094;28;20457;-85
2022/07/16 02:40:29;;;;;;;5.67;4.20;;;16.10;99.90;;;;;;5006414;28;20445;-84
2022/07/16 02:42:55;;;;;;;6.73;4.40;;;16.10;99.90;;;;;;5006822;28;20453;-85
2022/07/16 02:45:20;;;;;;;5.73;4.07;;;16.10;99.90;;;;;;5002045;28;20189;-84
2022/07/16 02:47:46;;;;;;;6.93;3.67;;;16.10;99.90;;;;;;5008728;28;20513;-84
2022/07/16 02:50:12;;;;;;;6.47;3.83;;;16.20;99.90;;;;;;5001908;28;20687;-84
2022/07/16 02:52:37;;;;;;;10.23;4.97;;;16.20;99.90;;;;;;5005054;28;20195;-84
2022/07/16 02:55:04;;;;;;;6.23;4.50;;;16.30;99.90;;;;;;5002845;28;20186;-85
2022/07/16 02:57:30;;;;;;;5.63;5.03;;;16.30;99.90;;;;;;5005214;28;20289;-86
2022/07/16 02:59:56;;;;;;;6.57;5.00;;;16.30;99.90;;;;;;5007857;28;21138;-85
2022/07/16 03:02:22;;;;;;;6.23;4.30;;;16.30;99.90;;;;;;5007704;28;20463;-84
2022/07/16 03:04:47;;;;;;;4.93;4.17;;;16.30;99.90;;;;;;5001977;28;20561;-85
2022/07/16 03:07:13;;;;;;;8.40;4.80;;;16.40;99.90;;;;;;5007412;28;20214;-86
2022/07/16 03:09:38;;;;;;;6.03;4.60;;;16.40;99.90;;;;;;5007359;28;20733;-84
2022/07/16 03:12:04;;;;;;;7.10;4.70;;;16.40;99.90;;;;;;5006464;28;20569;-85
2022/07/16 03:14:30;;;;;;;7.77;4.73;;;16.40;99.90;;;;;;5006750;28;20180;-84
2022/07/16 03:16:56;;;;;;;6.43;4.27;;;16.30;99.90;;;;;;5003404;28;20518;-84
2022/07/16 03:19:21;;;;;;;6.33;4.73;;;16.40;99.90;;;;;;5004965;28;20222;-85
2022/07/16 03:21:47;;;;;;;6.40;4.63;;;16.40;99.90;;;;;;5005433;28;20190;-84
2022/07/16 03:24:12;;;;;;;8.20;4.43;;;16.40;99.90;;;;;;5005304;28;20197;-84
2022/07/16 03:26:38;;;;;;;8.13;4.47;;;16.40;99.90;;;;;;5004792;28;20199;-85
2022/07/16 03:29:03;;;;;;;6.23;4.73;;;16.50;99.90;;;;;;5004217;28;20191;-85
2022/07/16 03:31:29;;;;;;;10.03;4.90;;;16.40;99.90;;;;;;5003981;28;20208;-85
2022/07/16 03:33:55;;;;;;;8.07;4.50;;;16.50;99.90;;;;;;5003673;28;20251;-85
2022/07/16 03:36:21;;;;;;;6.70;4.20;;;16.50;99.90;;;;;;5009112;28;20654;-84
2022/07/16 03:39:05;;;;;;;6.73;4.30;;;16.50;99.90;;;;;;5026945;28;20281;-84
2022/07/16 03:41:35;;;;;;;5.17;4.77;;;16.60;99.90;;;;;;5007151;28;20491;-85
2022/07/16 03:44:04;;;;;;;7.03;4.67;;;16.60;99.90;;;;;;5002714;28;20476;-85
2022/07/16 03:46:30;;;;;;;4.27;3.67;;;16.60;99.90;;;;;;5001299;28;20446;-85
2022/07/16 03:48:56;;;;;;;5.90;4.17;;;16.60;99.90;;;;;;5009680;28;20848;-85
2022/07/16 03:51:22;;;;;;;9.27;4.33;;;16.60;99.90;;;;;;4999678;28;20204;-85
2022/07/16 03:53:48;;;;;;;7.40;4.23;;;16.60;99.90;;;;;;5001494;28;20560;-85
2022/07/16 03:56:14;;;;;;;5.87;4.77;;;16.60;99.90;;;;;;5003539;28;20957;-86
2022/07/16 03:58:40;;;;;;;7.10;5.07;;;16.60;99.90;;;;;;5000590;28;20926;-84
2022/07/16 04:01:06;;;;;;;7.13;4.97;;;16.50;99.90;;;;;;5011260;28;20244;-84
2022/07/16 04:03:33;;;;;;;7.57;4.73;;;16.50;99.90;;;;;;5006721;28;20487;-86
2022/07/16 04:05:58;;;;;;;7.60;4.67;;;16.50;99.90;;;;;;5014246;28;20956;-85
2022/07/16 04:08:24;;;;;;;9.37;4.97;;;16.50;99.90;;;;;;5006894;28;20545;-84
2022/07/16 04:10:50;;;;;;;7.63;4.07;;;16.50;99.90;;;;;;5004769;28;20233;-85
2022/07/16 04:13:15;;;;;;;8.63;5.60;;;16.50;99.90;;;;;;5007061;28;20190;-85
2022/07/16 04:15:41;;;;;;;8.10;4.53;;;16.50;99.90;;;;;;5008835;28;20647;-84
2022/07/16 04:18:06;;;;;;;6.07;4.47;;;16.60;99.90;;;;;;5007886;28;20193;-85
2022/07/16 04:20:32;;;;;;;7.70;4.90;;;16.60;99.90;;;;;;5009317;28;20225;-85
2022/07/16 04:22:58;;;;;;;8.90;4.50;;;16.60;99.90;;;;;;5010010;28;20182;-85
2022/07/16 04:25:23;;;;;;;4.63;4.07;;;16.70;99.90;;;;;;5011653;28;20565;-85
2022/07/16 04:27:49;;;;;;;5.90;4.77;;;16.70;99.90;;;;;;5001781;28;20210;-85
2022/07/16 04:30:15;;;;;;;7.10;4.93;;;16.80;99.90;;;;;;5025971;28;20210;-85
2022/07/16 04:32:42;;;;;;;7.80;4.83;;;16.90;99.90;;;;;;5013272;28;20187;-85
2022/07/16 04:35:10;;;;;;;5.50;4.20;;;17.00;99.90;;;;;;4998279;28;20439;-85
2022/07/16 04:37:35;;;;;;;7.20;4.77;;;17.00;99.90;;;;;;5009466;28;20455;-84
2022/07/16 04:40:03;;;;;;;6.80;4.50;;;17.00;99.90;;;;;;5003594;28;20833;-84
2022/07/16 04:42:29;;;;;;;7.00;4.70;;;17.10;99.90;;;;;;5002822;28;20210;-86
2022/07/16 04:44:54;;;;;;;5.97;4.60;;;17.20;99.90;;;;;;5010286;28;20454;-84
2022/07/16 04:47:20;;;;;;;8.90;4.33;;;17.20;99.90;;;;;;5008336;28;20290;-85
2022/07/16 04:49:45;;;;;;;6.67;4.07;;;17.30;99.90;;;;;;5005850;28;20206;-86
2022/07/16 04:52:11;;;;;;;6.27;4.20;;;17.40;99.90;;;;;;5005076;28;20191;-85
2022/07/16 04:54:36;;;;;;;4.63;4.13;;;17.50;99.90;;;;;;5004349;28;20190;-84
2022/07/16 04:57:02;;;;;;;6.80;4.90;;;17.60;99.90;;;;;;5006404;28;20198;-85
2022/07/16 04:59:27;;;;;;;6.17;3.87;;;17.60;99.90;;;;;;5010721;28;20195;-85
2022/07/16 05:01:53;;;;;;;5.77;4.53;;;17.60;99.90;;;;;;4997467;28;20191;-85
2022/07/16 05:04:18;;;;;;;4.97;4.47;;;17.60;99.90;;;;;;4997346;28;20225;-85
2022/07/16 05:06:44;;;;;;;5.33;3.93;;;17.60;99.90;;;;;;5034112;23;20214;-80
2022/07/16 05:09:10;;;;;;;8.03;3.60;;;17.70;99.90;;;;;;5038448;28;20278;-83
2022/07/16 05:11:35;;;;;;;11.20;4.57;;;17.70;99.90;;;;;;5033530;28;20203;-83
2022/07/16 05:14:03;;;;;;;5.80;4.13;;;17.80;99.90;;;;;;5027493;28;20187;-85
2022/07/16 05:16:29;;;;;;;6.33;3.77;;;17.90;99.90;;;;;;5033230;28;20936;-85
2022/07/16 05:18:55;;;;;;;4.97;3.90;;;17.90;99.90;;;;;;5020676;28;20582;-84
2022/07/16 05:21:20;;;;;;;11.27;4.47;;;18.10;99.90;;;;;;5015032;28;20196;-85
2022/07/16 05:23:46;;;;;;;7.33;4.60;;;18.20;99.90;;;;;;5019851;28;20177;-85
2022/07/16 05:26:12;;;;;;;7.83;4.23;;;18.30;99.90;;;;;;5019474;28;20259;-85
2022/07/16 05:28:37;;;;;;;5.43;3.90;;;18.50;99.90;;;;;;5013065;28;20244;-85
2022/07/16 05:31:03;;;;;;;5.67;4.80;;;18.60;99.90;;;;;;5014768;28;20189;-85
2022/07/16 05:33:29;;;;;;;4.90;4.13;;;18.70;99.90;;;;;;5015574;28;20305;-85
2022/07/16 05:35:54;;;;;;;9.03;3.90;;;18.70;99.90;;;;;;5013755;28;20222;-83
2022/07/16 05:38:20;;;;;;;4.80;4.03;;;18.80;99.90;;;;;;5011984;28;20215;-84
2022/07/16 05:40:45;;;;;;;5.13;4.13;;;19.00;99.90;;;;;;5012285;28;20188;-84
2022/07/16 05:43:11;;;;;;;7.30;4.40;;;19.10;99.90;;;;;;5013471;28;20200;-84
2022/07/16 05:45:37;;;;;;;4.77;4.27;;;19.20;99.90;;;;;;5009715;28;20251;-84
2022/07/16 05:48:03;;;;;;;4.80;3.90;;;19.40;99.90;;;;;;5009426;28;20222;-84
2022/07/16 05:50:29;;;;;;;8.87;4.60;;;19.60;99.90;;;;;;5013575;28;20186;-84
2022/07/16 05:52:54;;;;;;;5.33;4.67;;;19.90;99.90;;;;;;5010143;28;20595;-84
2022/07/16 05:55:20;;;;;;;8.27;4.90;;;20.30;99.90;;;;;;5012293;28;20189;-84
2022/07/16 05:57:46;;;;;;;9.97;3.90;;;20.50;99.90;;;;;;5009940;28;20218;-83
2022/07/16 06:00:12;;;;;;;5.40;4.00;;;20.40;99.90;;;;;;5007872;28;20470;-84
2022/07/16 06:02:39;;;;;;;8.27;3.83;;;20.20;99.90;;;;;;5002229;28;20198;-84
2022/07/16 06:05:06;;;;;;;6.13;4.20;;;20.00;99.90;;;;;;5011466;28;20461;-84
2022/07/16 06:07:31;;;;;;;9.53;4.93;;;19.90;99.90;;;;;;5010011;28;20479;-84
2022/07/16 06:09:57;;;;;;;9.60;5.10;;;19.80;99.90;;;;;;5010043;28;20778;-84
2022/07/16 06:12:23;;;;;;;5.63;4.23;;;19.80;99.90;;;;;;5008610;28;20224;-84
2022/07/16 06:14:49;;;;;;;8.33;5.13;;;19.70;99.90;;;;;;5007322;28;20227;-84
2022/07/16 06:17:15;;;;;;;9.57;4.93;;;19.60;99.90;;;;;;5011499;28;20458;-84
2022/07/16 06:19:42;;;;;;;11.30;4.80;;;19.40;99.90;;;;;;5003034;28;20199;-84
2022/07/16 06:22:08;;;;;;;8.37;5.00;;;19.30;99.90;;;;;;5018493;28;20446;-84
2022/07/16 06:24:34;;;;;;;7.40;5.00;;;19.10;99.90;;;;;;5011701;28;20446;-85
2022/07/16 06:27:00;;;;;;;10.83;4.50;;;19.10;99.90;;;;;;5009345;28;20571;-84
2022/07/16 06:29:25;;;;;;;9.20;5.17;;;19.10;99.90;;;;;;5009033;28;20959;-84
2022/07/16 06:31:51;;;;;;;8.23;4.77;;;19.10;99.90;;;;;;5009288;28;20187;-83
2022/07/16 06:34:17;;;;;;;6.73;4.50;;;19.30;99.90;;;;;;5012599;28;20182;-84
2022/07/16 06:36:45;;;;;;;8.93;5.00;;;19.50;99.90;;;;;;5004927;28;20891;-83
2022/07/16 06:39:11;;;;;;;5.33;4.73;;;19.80;99.90;;;;;;5010157;28;20316;-84
2022/07/16 06:41:37;;;;;;;12.03;5.00;;;20.60;99.90;;;;;;5010140;28;20533;-84
2022/07/16 06:44:04;;;;;;;5.60;4.00;;;24.50;99.90;;;;;;5010128;28;20193;-83
2022/07/16 06:46:30;;;;;;;7.57;4.27;;;28.50;99.90;;;;;;5005352;28;20183;-84
2022/07/16 06:48:55;;;;;;;6.00;4.67;;;33.00;99.90;;;;;;5003398;28;20491;-83
2022/07/16 06:51:21;;;;;;;5.00;3.93;;;37.20;99.90;;;;;;5008237;28;20193;-83
2022/07/16 06:53:47;;;;;;;12.07;4.27;;;40.60;99.90;;;;;;5005854;28;20210;-84
2022/07/16 06:56:13;;;;;;;6.07;3.70;;;43.90;99.90;;;;;;5007787;28;20248;-84
2022/07/16 06:58:39;;;;;;;10.00;3.90;;;46.50;99.90;;;;;;5005790;28;20473;-84
2022/07/16 07:01:04;;;;;;;5.60;4.40;;;46.00;99.90;;;;;;5005243;28;20191;-84
2022/07/16 07:03:30;;;;;;;6.20;3.77;;;45.90;96.30;;;;;;5004148;28;20190;-84
2022/07/16 07:05:56;;;;;;;10.30;5.30;;;46.90;96.70;;;;;;5007450;28;20186;-84
2022/07/16 07:08:21;;;;;;;4.90;4.03;;;47.80;92.20;;;;;;5001928;28;20270;-84
2022/07/16 07:10:47;;;;;;;7.50;3.87;;;49.40;89.30;;;;;;5003528;28;20261;-84
2022/07/16 07:13:12;;;;;;;6.00;3.27;;;51.10;81.50;;;;;;5003901;28;20198;-85
2022/07/16 07:15:38;;;;;;;5.70;3.77;;;51.40;72.00;;;;;;5003873;28;20193;-84
2022/07/16 07:18:04;;;;;;;4.07;3.67;;;49.10;56.20;;;;;;5004256;28;20222;-84
2022/07/16 07:20:29;;;;;;;11.10;3.73;;;48.40;51.00;;;;;;5002482;28;20188;-83
2022/07/16 07:22:55;;;;;;;5.93;3.70;;;46.40;43.80;;;;;;5005087;28;20237;-84
2022/07/16 07:25:21;;;;;;;6.10;3.97;;;44.50;38.20;;;;;;5005609;28;20179;-84
2022/07/16 07:27:46;;;;;;;12.93;4.03;;;44.70;38.50;;;;;;5006374;28;20248;-84
2022/07/16 07:30:12;;;;;;;7.93;4.33;;;48.20;44.80;;;;;;5011371;28;20215;-84
2022/07/16 07:32:38;;;;;;;4.40;3.97;;;51.50;47.80;;;;;;5008436;28;20606;-85
2022/07/16 07:35:06;;;;;;;7.72;3.38;;;53.50;47.10;;;;;;5008171;28;20276;-85
2022/07/16 07:37:31;;;;;;;5.57;3.38;;;54.90;45.50;;;;;;5007265;28;20571;-83
2022/07/16 07:39:57;;;;;;;6.40;3.83;;;53.30;37.80;;;;;;5010876;28;20286;-83
2022/07/16 07:42:23;;;;;;;3.83;3.47;;;52.40;34.20;;;;;;5011237;28;20182;-83
2022/07/16 07:44:48;;;;;;;4.10;3.70;;;49.30;27.00;;;;;;5011300;28;20178;-83
2022/07/16 07:47:14;;;;;;;4.40;3.77;;;50.10;28.30;;;;;;5012125;28;20697;-83
2022/07/16 07:49:39;;;;;;;3.90;3.53;;;50.80;29.50;;;;;;5008722;28;20198;-83
2022/07/16 07:52:06;;;;;;;3.83;3.53;;;48.30;23.30;;;;;;5010175;28;20187;-83
2022/07/16 07:54:32;;;;;;;4.57;3.90;;;44.60;17.90;;;;;;5012140;28;20183;-82
2022/07/16 07:56:58;;;;;;;5.57;3.97;;;41.60;14.80;;;;;;5029692;28;20536;-82
2022/07/16 07:59:23;;;;;;;10.80;5.10;;;39.90;14.70;;;;;;5014162;28;20266;-83
2022/07/16 08:01:49;;;;;;;5.80;3.80;;;43.20;24.00;;;;;;5013234;28;20195;-82
2022/07/16 08:04:14;;;;;;;5.97;4.57;;;40.70;18.10;;;;;;5014504;28;20194;-82
2022/07/16 08:06:40;;;;;;;5.27;3.63;;;41.90;22.50;;;;;;5010439;28;20798;-83
2022/07/16 08:09:05;;;;;;;5.50;2.97;;;45.40;29.00;;;;;;5008755;28;20190;-83
2022/07/16 08:11:31;;;;;;;4.43;3.23;;;45.50;27.70;;;;;;5012247;28;20262;-83
2022/07/16 08:13:56;;;;;;;5.30;3.30;;;45.00;26.30;;;;;;5010349;28;20183;-83
2022/07/16 08:16:22;;;;;;;3.77;2.53;;;48.20;33.40;;;;;;5005578;28;20669;-84
2022/07/16 08:18:47;;;;;;;8.23;2.17;;;50.50;35.60;;;;;;5010109;28;20325;-84
2022/07/16 08:21:13;;;;;;;3.17;2.00;;;51.00;34.40;;;;;;5007372;28;20182;-84
2022/07/16 08:26:22;;;;;;;3.10;2.00;;;52.80;32.40;;;;;;5008860;28;20188;-84
2022/07/16 08:28:48;;;;;;;3.00;1.43;;;53.40;30.80;;;;;;5013629;28;20582;-84
2022/07/16 08:31:14;;;;;;;4.07;2.23;;;51.20;24.80;;;;;;5009556;28;20341;-83
2022/07/16 08:33:40;;;;;;;1.70;1.60;;;47.30;17.40;;;;;;5005252;28;20189;-82
2022/07/16 08:36:05;;;;;;;3.20;1.90;;;44.00;13.60;;;;;;5014939;28;20894;-82
2022/07/16 08:38:31;;;;;;;2.17;1.60;;;41.50;11.10;;;;;;5013692;28;20211;-82
2022/07/16 08:40:56;;;;;;;2.20;1.40;;;41.00;12.40;;;;;;5006807;28;20624;-82
2022/07/16 08:43:23;;;;;;;2.07;1.50;;;39.90;11.00;;;;;;5013739;28;20195;-81
2022/07/16 08:45:50;;;;;;;4.20;1.57;;;38.50;10.60;;;;;;5013156;28;20183;-82
2022/07/16 08:48:16;;;;;;;4.40;2.20;;;36.90;10.00;;;;;;5017062;28;20480;-81
2022/07/16 08:50:42;;;;;;;5.33;1.77;;;35.50;9.20;;;;;;5017162;28;20472;-82
2022/07/16 08:53:08;;;;;;;2.47;1.30;;;34.30;9.40;;;;;;5015124;28;20971;-81
2022/07/16 08:55:37;;;;;;;1.80;1.00;;;33.10;9.00;;;;;;5014753;28;20438;-81
2022/07/16 08:58:06;;;;;;;1.90;1.20;;;32.10;8.80;;;;;;5018935;28;20472;-81
2022/07/16 09:00:31;;;;;;;5.73;1.40;;;31.20;9.10;;;;;;5010426;28;20437;-80
2022/07/16 09:02:57;;;;;;;2.53;1.40;;;30.40;7.90;;;;;;5010763;28;20792;-81
2022/07/16 09:05:24;;;;;;;1.40;1.10;;;29.70;8.00;;;;;;5014603;28;20191;-81
2022/07/16 09:07:51;;;;;;;3.33;1.33;;;29.20;8.10;;;;;;5012212;28;20543;-83
2022/07/16 09:10:16;;;;;;;1.63;1.03;;;30.90;14.00;;;;;;5011101;28;20446;-83
2022/07/16 09:12:43;;;;;;;3.30;1.07;;;35.50;25.60;;;;;;5009332;28;20458;-85
2022/07/16 09:15:32;;;;;;;1.60;0.90;;;35.40;24.40;;;;;;5014192;28;20607;-83
2022/07/16 09:18:21;;;;;;;2.90;1.00;;;34.40;21.60;;;;;;5009028;28;20846;-83
2022/07/16 09:20:54;;;;;;;2.03;1.00;;;33.40;19.60;;;;;;5010209;28;20441;-82
2022/07/16 09:23:22;;;;;;;4.07;1.20;;;32.70;17.90;;;;;;5008392;28;20444;-82
2022/07/16 09:25:53;;;;;;;1.60;0.80;;;33.80;20.30;;;;;;5026032;28;20430;-84
2022/07/16 09:28:19;;;;;;;1.40;0.90;;;37.00;28.40;;;;;;5010263;28;20453;-83
2022/07/16 09:30:48;;;;;;;2.30;0.97;;;38.20;30.00;;;;;;5014415;28;20444;-82
2022/07/16 09:33:26;;;;;;;3.13;0.80;;;39.00;30.00;;;;;;5009463;28;20442;-82
2022/07/16 09:36:10;;;;;;;2.60;1.10;;;38.60;26.30;;;;;;5015405;28;20859;-82
2022/07/16 09:38:47;;;;;;;2.30;1.10;;;38.40;25.60;;;;;;5013334;28;20512;-83
2022/07/16 09:41:15;;;;;;;2.13;1.00;;;41.00;29.70;;;;;;5013532;28;20826;-83
2022/07/16 09:43:42;;;;;;;1.83;0.90;;;43.80;32.20;;;;;;5003262;28;21012;-83
2022/07/16 09:46:14;;;;;;;1.90;1.00;;;45.70;32.60;;;;;;5010720;28;20418;-83
2022/07/16 09:48:42;;;;;;;3.70;1.00;;;47.40;33.20;;;;;;5009502;28;20468;-83
2022/07/16 09:51:26;;;;;;;1.63;0.70;;;46.50;27.90;;;;;;5002883;28;20422;-83
2022/07/16 09:53:52;;;;;;;3.47;1.03;;;46.80;26.80;;;;;;5003110;28;20437;-83
2022/07/16 09:56:23;;;;;;;1.90;1.00;;;47.90;27.10;;;;;;5006170;28;20425;-84
2022/07/16 09:58:58;;;;;;;2.60;0.90;;;48.70;25.90;;;;;;5007454;28;20527;-83
2022/07/16 10:01:24;;;;;;;1.93;1.10;;;49.00;25.00;;;;;;5003635;28;20782;-83
2022/07/16 10:03:51;;;;;;;1.90;0.80;;;47.80;21.50;;;;;;5001452;28;20450;-83
2022/07/16 10:06:18;;;;;;;2.80;0.90;;;46.20;16.70;;;;;;5009614;28;20190;-83
2022/07/16 10:08:44;;;;;;;1.40;1.23;;;44.60;13.40;;;;;;5010870;28;20461;-83
2022/07/16 10:11:11;;;;;;;2.70;0.90;;;43.30;10.50;;;;;;5001704;28;20470;-83
2022/07/16 10:13:41;;;;;;;2.97;0.90;;;43.50;10.90;;;;;;5001739;28;20434;-83
2022/07/16 10:16:07;;;;;;;1.63;0.93;;;43.70;11.70;;;;;;5004164;28;20422;-83
2022/07/16 10:18:43;;;;;;;1.23;0.80;;;42.40;9.40;;;;;;5000397;28;21007;-83
2022/07/16 10:21:15;;;;;;;2.70;1.20;;;42.40;9.80;;;;;;5011930;28;20182;-83
2022/07/16 10:23:48;;;;;;;2.33;1.10;;;42.20;9.60;;;;;;5003614;28;20449;-83
2022/07/16 10:26:20;;;;;;;2.07;1.00;;;41.80;9.40;;;;;;4998925;28;20832;-84
2022/07/16 10:28:56;;;;;;;1.73;1.10;;;39.90;6.20;;;;;;5018206;28;20450;-82
2022/07/16 10:31:34;;;;;;;2.07;0.90;;;38.40;4.20;;;;;;5017989;28;20432;-82
2022/07/16 10:34:15;;;;;;;1.87;0.93;;;38.50;6.80;;;;;;5010183;28;20869;-83
2022/07/16 10:36:50;;;;;;;2.50;1.07;;;40.40;11.10;;;;;;5011985;28;20517;-83
2022/07/16 10:39:16;;;;;;;1.80;1.00;;;41.80;13.20;;;;;;5001353;28;20839;-83
2022/07/16 10:41:49;;;;;;;1.77;0.90;;;43.00;14.70;;;;;;5008509;28;20422;-83
2022/07/16 10:44:15;;;;;;;6.10;1.00;;;41.70;12.30;;;;;;5012314;28;21128;-83
2022/07/16 10:46:52;;;;;;;2.80;1.00;;;41.70;11.40;;;;;;5004116;28;20422;-83
2022/07/16 10:49:18;;;;;;;2.30;0.80;;;42.20;12.40;;;;;;5014810;28;20219;-83
2022/07/16 10:51:58;;;;;;;2.00;0.90;;;42.50;12.30;;;;;;5005264;28;20941;-83
2022/07/16 10:54:25;;;;;;;1.30;0.90;;;42.50;11.30;;;;;;5012028;28;20430;-83
2022/07/16 10:56:52;;;;;;;2.67;0.93;;;41.20;8.30;;;;;;5011483;28;20464;-83
2022/07/16 10:59:24;;;;;;;2.10;1.10;;;40.50;7.10;;;;;;5003999;28;20426;-83
2022/07/16 11:01:53;;;;;;;2.37;1.17;;;39.40;5.10;;;;;;5015905;28;20422;-83
2022/07/16 11:04:46;;;;;;;2.00;1.00;;;39.10;5.50;;;;;;5008999;28;20430;-84
2022/07/16 11:07:15;;;;;;;1.40;1.00;;;40.40;8.80;;;;;;4996344;28;20494;-83
2022/07/16 11:09:43;;;;;;;3.47;0.90;;;40.60;9.80;;;;;;5010911;28;20425;-83
2022/07/16 11:12:20;;;;;;;1.50;0.80;;;39.40;6.80;;;;;;5008025;28;20422;-83
2022/07/16 11:14:49;;;;;;;2.90;0.90;;;39.40;7.40;;;;;;5008067;28;20449;-82
2022/07/16 11:17:17;;;;;;;3.67;1.17;;;39.80;8.80;;;;;;5007799;28;20461;-82
2022/07/16 11:19:48;;;;;;;1.93;0.97;;;40.50;9.50;;;;;;5012321;28;20512;-85
2022/07/16 11:22:23;;;;;;;2.23;0.90;;;41.40;10.80;;;;;;5012037;28;20441;-83
2022/07/16 11:24:54;;;;;;;2.13;1.00;;;40.30;17.90;;;;;;5011857;28;20497;-82
2022/07/16 11:27:29;;;;;;;2.83;1.23;;;40.10;8.20;;;;;;5030457;28;20451;-82
2022/07/16 11:29:59;;;;;;;4.50;1.70;;;39.10;6.00;;;;;;5010634;28;20445;-83
2022/07/16 11:32:26;;;;;;;3.77;1.20;;;37.90;3.10;;;;;;5014502;28;20434;-82
2022/07/16 11:34:52;;;;;;;3.43;1.23;;;38.20;14.40;;;;;;5026523;28;20459;-82
2022/07/16 11:37:17;;;;;;;3.23;1.37;;;38.50;5.80;;;;;;5012553;28;20466;-83
2022/07/16 11:39:43;;;;;;;1.63;1.10;;;39.00;7.60;;;;;;5012830;28;20183;-83
2022/07/16 11:42:09;;;;;;;2.10;1.13;;;39.00;7.50;;;;;;5009258;28;20726;-83
2022/07/16 11:44:40;;;;;;;1.30;0.90;;;37.90;4.60;;;;;;5015727;28;20281;-86
2022/07/16 11:47:08;;;;;;;3.43;1.10;;;38.00;4.40;;;;;;5013552;28;20468;-83
2022/07/16 11:49:38;;;;;;;1.57;0.90;;;37.30;4.50;;;;;;5016724;28;20445;-84
2022/07/16 11:52:26;;;;;;;5.57;2.27;;;36.70;3.00;;;;;;5011204;28;20448;-82
2022/07/16 11:54:56;;;;;;;3.30;1.50;;;36.10;2.90;;;;;;5012763;28;20437;-82
2022/07/16 11:57:21;;;;;;;5.00;1.40;;;35.80;3.30;;;;;;5013515;28;20484;-82
2022/07/16 11:59:52;;;;;;;1.87;1.07;;;35.40;2.80;;;;;;5014627;28;20433;-83
2022/07/16 12:02:20;;;;;;;4.00;1.40;;;35.50;3.80;;;;;;5016313;28;20207;-82
2022/07/16 12:04:51;;;;;;;5.37;1.50;;;34.80;3.00;;;;;;5014485;28;20516;-82
2022/07/16 12:07:24;;;;;;;2.90;1.20;;;35.90;6.50;;;;;;5013905;28;20465;-83
2022/07/16 12:09:51;;;;;;;2.33;1.00;;;36.90;8.80;;;;;;5017587;28;20487;-82
2022/07/16 12:12:20;;;;;;;2.23;1.30;;;37.80;10.10;;;;;;5014758;28;20449;-86
2022/07/16 12:14:53;;;;;;;1.53;0.90;;;37.70;9.90;;;;;;5012806;28;20437;-83
2022/07/16 12:17:25;;;;;;;3.30;1.30;;;37.90;10.20;;;;;;5014107;28;20516;-82
2022/07/16 12:20:12;;;;;;;5.43;3.60;;;38.70;10.70;;;;;;5028431;28;20441;-82
2022/07/16 12:22:56;;;;;;;4.40;1.37;;;39.10;11.70;;;;;;5018263;28;20437;-82
2022/07/16 12:25:27;;;;;;;1.60;0.93;;;37.80;7.50;;;;;;5016349;28;20769;-81
2022/07/16 12:28:03;;;;;;;2.50;1.30;;;37.70;7.60;;;;;;5016059;28;20828;-82
2022/07/16 12:31:05;;;;;;;6.70;1.00;;;38.00;17.70;;;;;;5016365;28;20429;-83
2022/07/16 12:33:31;;;;;;;2.40;1.10;;;37.00;6.10;;;;;;5009783;28;20585;-83
2022/07/16 12:36:05;;;;;;;2.07;1.20;;;36.80;5.90;;;;;;5020474;28;20449;-82
2022/07/16 12:38:41;;;;;;;4.43;1.43;;;37.40;7.60;;;;;;5013240;28;20211;-82
2022/07/16 12:41:11;;;;;;;1.60;1.00;;;37.70;7.30;;;;;;5034597;28;20469;-85
2022/07/16 12:43:39;;;;;;;3.30;0.90;;;37.60;7.10;;;;;;5014303;28;20445;-82
2022/07/16 12:46:06;;;;;;;2.13;1.10;;;37.70;8.00;;;;;;5020307;28;20525;-82
2022/07/16 12:48:43;;;;;;;2.90;1.20;;;37.60;6.60;;;;;;5013287;28;20462;-82
2022/07/16 12:51:12;;;;;;;5.00;1.07;;;37.40;15.70;;;;;;5014493;28;20472;-80
2022/07/16 12:53:38;;;;;;;3.00;1.17;;;36.70;4.70;;;;;;5016216;28;20445;-81
2022/07/16 12:58:48;;;;;;;6.43;1.70;;;35.20;2.20;;;;;;5008058;28;20472;-82
2022/07/16 13:01:21;;;;;;;5.40;2.77;;;34.90;2.00;;;;;;5017073;28;20445;-81
2022/07/16 13:03:48;;;;;;;2.50;1.00;;;35.30;4.10;;;;;;5008784;28;20631;-82